Hlavní strana
METAR-TAF:

METAR-TAF

Letiště :

Letiště Burgas

Burgas, Bulharsko

zeměpisná šířka: 42-29N, zeměpisná délka: 027-29E, výška: 16 m

Aktuální stav počasí

Zpráva byla vytvořena před 31 minutami, v 15:30 UTC
Západojihozápadní vítr 9 kt
Teplota 21°C
Vlhkost vzduchu 35%
Tlak 1012 hPa
Viditelnost 10 km a více
Žádná oblačnost pod 1500 m, nevyskytují se cumulonimby.

METAR: LBBG 241530Z 25009KT CAVOK 21/05 Q1012 NOSIG

Čas: 19:01 (16:01 UTC)

Předpověď počasí

Zpráva byla vytvořena před 5 hodinami a 1 minutami, v 11:00 UTC
Předpověď platná od 24 v 12 UTC do 25 v 12 UTC
Západojihozápadní vítr 18 kt
Viditelnost 10 km a více
Polojasno ve výšce 4500 ft
Změna
od 24 v 19 UTC do 24 v 21 UTC
Západní vítr 8 kt
Změna
od 25 v 09 UTC do 25 v 11 UTC
Jihovýchodní vítr 10 kt

TAF: LBBG 241100Z 2412/2512 24018KT 9999 SCT045 BECMG 2419/2421 27008KT BECMG 2509/2511 13010KT

Stav a předpovědi počasí z více než 4 000 letišť (zprávy METAR a TAF).

Červené a žluté tečky na mapě představují dostupné meteorologické stanice.

Když kurzor umístíte na tečku, zobrazí se název stanice.

Pak kliknutím zobrazíte stav a předpověď počasí.

Chcete-li změnit mapu, kliknutím na zelené tlačítko se znaménkem +mapu přiblížíte, kliknutím na zelené tlačítko se znaménkem – mapu oddálíte a kliknutím na zelené šipky přejdete na sousední mapy.


METAR-TAF: